sensor_id;sensor_type;location;lat;lon;timestamp;pressure;altitude;pressure_sealevel;temperature;humidity
11415;BME280;5763;42.714;23.244;2023-01-10T00:01:40;93793.84;;;6.15;76.36
11415;BME280;5763;42.714;23.244;2023-01-10T00:04:06;93798.34;;;6.18;76.34
11415;BME280;5763;42.714;23.244;2023-01-10T00:06:33;93796.34;;;6.09;76.18
11415;BME280;5763;42.714;23.244;2023-01-10T00:09:00;93787.91;;;6.07;76.50
11415;BME280;5763;42.714;23.244;2023-01-10T00:11:26;93770.47;;;5.96;76.45
11415;BME280;5763;42.714;23.244;2023-01-10T00:14:07;93775.75;;;5.99;76.52
11415;BME280;5763;42.714;23.244;2023-01-10T00:16:35;93792.69;;;6.03;77.00
11415;BME280;5763;42.714;23.244;2023-01-10T00:19:05;93769.25;;;5.97;76.66
11415;BME280;5763;42.714;23.244;2023-01-10T00:21:32;93780.03;;;5.88;77.20
11415;BME280;5763;42.714;23.244;2023-01-10T00:23:59;93791.41;;;5.95;77.12
11415;BME280;5763;42.714;23.244;2023-01-10T00:26:41;93758.47;;;5.84;77.29
11415;BME280;5763;42.714;23.244;2023-01-10T00:29:10;93786.94;;;5.80;77.87
11415;BME280;5763;42.714;23.244;2023-01-10T00:31:37;93754.25;;;5.83;78.14
11415;BME280;5763;42.714;23.244;2023-01-10T00:34:05;93743.81;;;5.82;77.73
11415;BME280;5763;42.714;23.244;2023-01-10T00:36:33;93779.88;;;5.82;78.32
11415;BME280;5763;42.714;23.244;2023-01-10T00:38:59;93762.38;;;5.83;78.06
11415;BME280;5763;42.714;23.244;2023-01-10T00:41:26;93767.13;;;5.79;77.92
11415;BME280;5763;42.714;23.244;2023-01-10T00:44:10;93748.53;;;5.69;78.72
11415;BME280;5763;42.714;23.244;2023-01-10T00:46:37;93738.19;;;5.76;78.29
11415;BME280;5763;42.714;23.244;2023-01-10T00:49:03;93725.75;;;5.88;78.01
11415;BME280;5763;42.714;23.244;2023-01-10T00:51:36;93739.31;;;5.88;77.64
11415;BME280;5763;42.714;23.244;2023-01-10T00:54:03;93749.56;;;5.84;77.65
11415;BME280;5763;42.714;23.244;2023-01-10T00:56:30;93777.53;;;5.93;77.37
11415;BME280;5763;42.714;23.244;2023-01-10T00:58:56;93761.63;;;6.04;77.07
11415;BME280;5763;42.714;23.244;2023-01-10T01:01:23;93728.41;;;6.00;77.23
11415;BME280;5763;42.714;23.244;2023-01-10T01:03:50;93750.13;;;6.00;77.27
11415;BME280;5763;42.714;23.244;2023-01-10T01:06:17;93730.75;;;5.89;77.74
11415;BME280;5763;42.714;23.244;2023-01-10T01:08:45;93751.03;;;5.97;77.27
11415;BME280;5763;42.714;23.244;2023-01-10T01:11:12;93737.75;;;5.99;77.80
11415;BME280;5763;42.714;23.244;2023-01-10T01:13:38;93756.94;;;6.05;76.78
11415;BME280;5763;42.714;23.244;2023-01-10T01:16:06;93750.88;;;6.22;76.21
11415;BME280;5763;42.714;23.244;2023-01-10T01:18:33;93768.25;;;6.25;76.19
11415;BME280;5763;42.714;23.244;2023-01-10T01:20:59;93718.97;;;6.14;76.26
11415;BME280;5763;42.714;23.244;2023-01-10T01:23:28;93737.25;;;6.13;76.32
11415;BME280;5763;42.714;23.244;2023-01-10T01:25:56;93721.09;;;6.10;76.62
11415;BME280;5763;42.714;23.244;2023-01-10T01:28:23;93712.19;;;5.88;77.15
11415;BME280;5763;42.714;23.244;2023-01-10T01:30:50;93712.25;;;5.97;77.33
11415;BME280;5763;42.714;23.244;2023-01-10T01:33:17;93731.03;;;6.13;77.09
11415;BME280;5763;42.714;23.244;2023-01-10T01:35:45;93729.44;;;6.24;76.36
11415;BME280;5763;42.714;23.244;2023-01-10T01:38:13;93716.75;;;6.21;76.11
11415;BME280;5763;42.714;23.244;2023-01-10T01:40:40;93724.28;;;6.17;76.34
11415;BME280;5763;42.714;23.244;2023-01-10T01:43:21;93715.19;;;6.11;76.58
11415;BME280;5763;42.714;23.244;2023-01-10T01:45:48;93724.97;;;6.09;77.00
11415;BME280;5763;42.714;23.244;2023-01-10T01:48:27;93719.72;;;6.14;76.49
11415;BME280;5763;42.714;23.244;2023-01-10T01:50:59;93738.25;;;6.07;76.82
11415;BME280;5763;42.714;23.244;2023-01-10T01:53:33;93714.38;;;6.02;77.33
11415;BME280;5763;42.714;23.244;2023-01-10T01:56:04;93680.47;;;6.06;77.15
11415;BME280;5763;42.714;23.244;2023-01-10T01:58:38;93695.22;;;5.96;77.49
11415;BME280;5763;42.714;23.244;2023-01-10T02:01:07;93695.44;;;6.11;76.76
11415;BME280;5763;42.714;23.244;2023-01-10T02:03:34;93708.00;;;6.17;76.94
11415;BME280;5763;42.714;23.244;2023-01-10T02:06:03;93710.38;;;6.15;76.44
11415;BME280;5763;42.714;23.244;2023-01-10T02:08:30;93705.13;;;6.21;76.42
11415;BME280;5763;42.714;23.244;2023-01-10T02:11:02;93680.06;;;6.17;77.03
11415;BME280;5763;42.714;23.244;2023-01-10T02:13:37;93686.16;;;5.99;77.84
11415;BME280;5763;42.714;23.244;2023-01-10T02:16:05;93673.97;;;6.04;77.56
11415;BME280;5763;42.714;23.244;2023-01-10T02:18:33;93671.09;;;5.98;77.63
11415;BME280;5763;42.714;23.244;2023-01-10T02:21:19;93666.88;;;6.06;77.62
11415;BME280;5763;42.714;23.244;2023-01-10T02:24:23;93669.78;;;6.12;77.17
11415;BME280;5763;42.714;23.244;2023-01-10T02:27:09;93664.84;;;6.19;77.16
11415;BME280;5763;42.714;23.244;2023-01-10T02:30:06;93666.22;;;6.24;76.90
11415;BME280;5763;42.714;23.244;2023-01-10T02:32:45;93670.94;;;6.32;76.23
11415;BME280;5763;42.714;23.244;2023-01-10T02:38:15;93665.50;;;6.32;76.28
11415;BME280;5763;42.714;23.244;2023-01-10T02:40:52;93651.34;;;6.37;75.75
11415;BME280;5763;42.714;23.244;2023-01-10T02:43:25;93666.56;;;6.35;75.68
11415;BME280;5763;42.714;23.244;2023-01-10T02:45:57;93673.38;;;6.39;75.49
11415;BME280;5763;42.714;23.244;2023-01-10T02:48:26;93675.78;;;6.37;75.65
11415;BME280;5763;42.714;23.244;2023-01-10T02:50:57;93674.75;;;6.44;75.23
11415;BME280;5763;42.714;23.244;2023-01-10T02:53:28;93668.56;;;6.52;75.00
11415;BME280;5763;42.714;23.244;2023-01-10T02:59:01;93681.88;;;6.50;74.88
11415;BME280;5763;42.714;23.244;2023-01-10T03:01:35;93700.94;;;6.59;74.88
11415;BME280;5763;42.714;23.244;2023-01-10T03:04:17;93679.47;;;6.61;74.65
11415;BME280;5763;42.714;23.244;2023-01-10T03:06:53;93683.31;;;6.42;75.19
11415;BME280;5763;42.714;23.244;2023-01-10T03:09:26;93687.44;;;6.47;74.79
11415;BME280;5763;42.714;23.244;2023-01-10T03:12:01;93682.75;;;6.47;75.09
11415;BME280;5763;42.714;23.244;2023-01-10T03:14:33;93687.28;;;6.50;74.83
11415;BME280;5763;42.714;23.244;2023-01-10T03:17:07;93689.88;;;6.54;74.47
11415;BME280;5763;42.714;23.244;2023-01-10T03:19:39;93695.16;;;6.57;74.46
11415;BME280;5763;42.714;23.244;2023-01-10T03:22:09;93703.06;;;6.64;73.79
11415;BME280;5763;42.714;23.244;2023-01-10T03:24:39;93666.16;;;6.45;73.90
11415;BME280;5763;42.714;23.244;2023-01-10T03:27:12;93687.38;;;6.77;73.45
11415;BME280;5763;42.714;23.244;2023-01-10T03:29:43;93693.56;;;6.78;73.31
11415;BME280;5763;42.714;23.244;2023-01-10T03:32:14;93673.00;;;6.68;74.48
11415;BME280;5763;42.714;23.244;2023-01-10T03:34:44;93686.91;;;6.70;73.87
11415;BME280;5763;42.714;23.244;2023-01-10T03:37:14;93686.78;;;6.73;73.81
11415;BME280;5763;42.714;23.244;2023-01-10T03:39:57;93698.88;;;6.81;73.50
11415;BME280;5763;42.714;23.244;2023-01-10T03:42:29;93694.66;;;6.89;72.81
11415;BME280;5763;42.714;23.244;2023-01-10T03:45:23;93691.47;;;6.91;72.88
11415;BME280;5763;42.714;23.244;2023-01-10T03:47:53;93670.97;;;6.99;72.67
11415;BME280;5763;42.714;23.244;2023-01-10T03:50:24;93665.97;;;7.06;72.54
11415;BME280;5763;42.714;23.244;2023-01-10T03:52:52;93656.75;;;7.04;72.36
11415;BME280;5763;42.714;23.244;2023-01-10T03:55:21;93643.75;;;6.99;72.47
11415;BME280;5763;42.714;23.244;2023-01-10T03:57:48;93637.88;;;7.00;72.33
11415;BME280;5763;42.714;23.244;2023-01-10T04:00:16;93619.13;;;7.02;72.05
11415;BME280;5763;42.714;23.244;2023-01-10T04:02:43;93604.47;;;6.91;72.78
11415;BME280;5763;42.714;23.244;2023-01-10T04:05:11;93588.63;;;6.89;72.67
11415;BME280;5763;42.714;23.244;2023-01-10T04:07:39;93590.88;;;6.82;73.37
11415;BME280;5763;42.714;23.244;2023-01-10T04:10:07;93573.34;;;6.74;72.84
11415;BME280;5763;42.714;23.244;2023-01-10T04:12:34;93572.88;;;6.57;73.82
11415;BME280;5763;42.714;23.244;2023-01-10T04:15:01;93570.47;;;6.50;74.18
11415;BME280;5763;42.714;23.244;2023-01-10T04:17:28;93574.41;;;6.58;73.82
11415;BME280;5763;42.714;23.244;2023-01-10T04:19:55;93609.84;;;6.55;74.23
11415;BME280;5763;42.714;23.244;2023-01-10T04:22:21;93642.03;;;6.56;73.74
11415;BME280;5763;42.714;23.244;2023-01-10T04:24:49;93661.78;;;6.48;74.12
11415;BME280;5763;42.714;23.244;2023-01-10T04:27:18;93673.84;;;6.47;74.80
11415;BME280;5763;42.714;23.244;2023-01-10T04:29:45;93683.06;;;6.49;74.38
11415;BME280;5763;42.714;23.244;2023-01-10T04:32:11;93684.53;;;6.41;74.19
11415;BME280;5763;42.714;23.244;2023-01-10T04:34:38;93685.75;;;6.40;74.24
11415;BME280;5763;42.714;23.244;2023-01-10T04:37:05;93689.56;;;6.52;74.02
11415;BME280;5763;42.714;23.244;2023-01-10T04:39:32;93693.97;;;6.58;74.12
11415;BME280;5763;42.714;23.244;2023-01-10T04:42:00;93686.28;;;6.57;74.32
11415;BME280;5763;42.714;23.244;2023-01-10T04:44:26;93665.31;;;6.75;73.24
11415;BME280;5763;42.714;23.244;2023-01-10T04:46:53;93667.00;;;6.82;73.43
11415;BME280;5763;42.714;23.244;2023-01-10T04:49:20;93651.16;;;6.89;73.24
11415;BME280;5763;42.714;23.244;2023-01-10T04:51:47;93656.75;;;6.95;72.71
11415;BME280;5763;42.714;23.244;2023-01-10T04:54:13;93664.47;;;6.96;72.73
11415;BME280;5763;42.714;23.244;2023-01-10T04:56:40;93635.13;;;6.82;72.63
11415;BME280;5763;42.714;23.244;2023-01-10T04:59:09;93665.09;;;7.09;72.04
11415;BME280;5763;42.714;23.244;2023-01-10T05:01:36;93637.28;;;7.23;71.35
11415;BME280;5763;42.714;23.244;2023-01-10T05:04:04;93645.75;;;7.25;71.50
11415;BME280;5763;42.714;23.244;2023-01-10T05:06:32;93630.16;;;7.26;71.13
11415;BME280;5763;42.714;23.244;2023-01-10T05:08:58;93628.50;;;7.28;71.24
11415;BME280;5763;42.714;23.244;2023-01-10T05:11:25;93627.59;;;7.22;71.25
11415;BME280;5763;42.714;23.244;2023-01-10T05:13:52;93652.09;;;7.22;71.27
11415;BME280;5763;42.714;23.244;2023-01-10T05:16:20;93641.19;;;7.13;71.17
11415;BME280;5763;42.714;23.244;2023-01-10T05:18:47;93626.53;;;7.11;71.30
11415;BME280;5763;42.714;23.244;2023-01-10T05:21:15;93638.34;;;7.17;71.23
11415;BME280;5763;42.714;23.244;2023-01-10T05:23:42;93643.63;;;7.20;71.20
11415;BME280;5763;42.714;23.244;2023-01-10T05:26:10;93627.75;;;7.19;71.09
11415;BME280;5763;42.714;23.244;2023-01-10T05:28:38;93614.59;;;7.26;70.92
11415;BME280;5763;42.714;23.244;2023-01-10T05:31:05;93613.56;;;7.33;70.61
11415;BME280;5763;42.714;23.244;2023-01-10T05:33:33;93623.97;;;7.34;70.03
11415;BME280;5763;42.714;23.244;2023-01-10T05:36:01;93621.09;;;7.38;70.17
11415;BME280;5763;42.714;23.244;2023-01-10T05:38:28;93638.78;;;7.42;69.64
11415;BME280;5763;42.714;23.244;2023-01-10T05:40:59;93652.69;;;7.53;69.83
11415;BME280;5763;42.714;23.244;2023-01-10T05:43:28;93652.38;;;7.51;69.65
11415;BME280;5763;42.714;23.244;2023-01-10T05:45:55;93654.94;;;7.46;70.02
11415;BME280;5763;42.714;23.244;2023-01-10T05:48:23;93633.63;;;7.44;70.14
11415;BME280;5763;42.714;23.244;2023-01-10T05:50:52;93631.66;;;7.45;69.80
11415;BME280;5763;42.714;23.244;2023-01-10T05:53:20;93624.28;;;7.45;69.74
11415;BME280;5763;42.714;23.244;2023-01-10T05:55:53;93638.78;;;7.42;69.79
11415;BME280;5763;42.714;23.244;2023-01-10T05:58:20;93630.16;;;7.44;69.78
11415;BME280;5763;42.714;23.244;2023-01-10T06:00:47;93635.78;;;7.31;69.89
11415;BME280;5763;42.714;23.244;2023-01-10T06:03:14;93635.00;;;7.31;70.01
11415;BME280;5763;42.714;23.244;2023-01-10T06:05:41;93653.31;;;7.30;70.19
11415;BME280;5763;42.714;23.244;2023-01-10T06:08:09;93641.81;;;7.26;70.80
11415;BME280;5763;42.714;23.244;2023-01-10T06:10:36;93637.88;;;7.27;70.61
11415;BME280;5763;42.714;23.244;2023-01-10T06:13:03;93647.53;;;7.28;70.60
11415;BME280;5763;42.714;23.244;2023-01-10T06:15:30;93653.00;;;7.19;71.38
11415;BME280;5763;42.714;23.244;2023-01-10T06:17:57;93653.91;;;7.25;71.54
11415;BME280;5763;42.714;23.244;2023-01-10T06:20:24;93662.38;;;7.36;71.52
11415;BME280;5763;42.714;23.244;2023-01-10T06:22:51;93657.53;;;7.40;71.67
11415;BME280;5763;42.714;23.244;2023-01-10T06:25:19;93648.78;;;7.45;72.17
11415;BME280;5763;42.714;23.244;2023-01-10T06:27:46;93648.44;;;7.34;72.63
11415;BME280;5763;42.714;23.244;2023-01-10T06:30:13;93647.72;;;7.43;72.12
11415;BME280;5763;42.714;23.244;2023-01-10T06:32:40;93658.13;;;7.44;72.46
11415;BME280;5763;42.714;23.244;2023-01-10T06:35:08;93645.72;;;7.43;73.06
11415;BME280;5763;42.714;23.244;2023-01-10T06:37:36;93646.50;;;7.35;73.30
11415;BME280;5763;42.714;23.244;2023-01-10T06:40:03;93642.88;;;7.29;74.06
11415;BME280;5763;42.714;23.244;2023-01-10T06:42:32;93640.59;;;7.36;73.75
11415;BME280;5763;42.714;23.244;2023-01-10T06:44:58;93639.69;;;7.39;73.40
11415;BME280;5763;42.714;23.244;2023-01-10T06:47:25;93649.06;;;7.56;73.23
11415;BME280;5763;42.714;23.244;2023-01-10T06:49:52;93657.81;;;7.60;73.54
11415;BME280;5763;42.714;23.244;2023-01-10T06:52:19;93662.06;;;7.61;73.51
11415;BME280;5763;42.714;23.244;2023-01-10T06:54:45;93652.50;;;7.66;73.53
11415;BME280;5763;42.714;23.244;2023-01-10T06:57:13;93640.88;;;7.65;74.25
11415;BME280;5763;42.714;23.244;2023-01-10T06:59:41;93640.72;;;7.51;74.81
11415;BME280;5763;42.714;23.244;2023-01-10T07:02:13;93639.22;;;7.59;74.68
11415;BME280;5763;42.714;23.244;2023-01-10T07:04:40;93629.69;;;7.63;74.91
11415;BME280;5763;42.714;23.244;2023-01-10T07:07:07;93630.00;;;7.65;74.73
11415;BME280;5763;42.714;23.244;2023-01-10T07:09:33;93620.63;;;7.66;75.30
11415;BME280;5763;42.714;23.244;2023-01-10T07:12:00;93621.84;;;7.65;75.63
11415;BME280;5763;42.714;23.244;2023-01-10T07:14:27;93614.72;;;7.59;76.01
11415;BME280;5763;42.714;23.244;2023-01-10T07:16:55;93614.84;;;7.64;76.29
11415;BME280;5763;42.714;23.244;2023-01-10T07:19:22;93614.38;;;7.75;77.43
11415;BME280;5763;42.714;23.244;2023-01-10T07:21:48;93606.66;;;7.82;76.77
11415;BME280;5763;42.714;23.244;2023-01-10T07:24:15;93614.38;;;7.84;76.75
11415;BME280;5763;42.714;23.244;2023-01-10T07:26:42;93623.59;;;7.86;76.93
11415;BME280;5763;42.714;23.244;2023-01-10T07:29:09;93616.75;;;7.91;76.41
11415;BME280;5763;42.714;23.244;2023-01-10T07:31:35;93616.31;;;7.92;76.44
11415;BME280;5763;42.714;23.244;2023-01-10T07:34:03;93598.06;;;7.75;76.67
11415;BME280;5763;42.714;23.244;2023-01-10T07:36:30;93612.09;;;7.91;76.83
11415;BME280;5763;42.714;23.244;2023-01-10T07:38:57;93612.09;;;7.91;76.97
11415;BME280;5763;42.714;23.244;2023-01-10T07:41:23;93610.13;;;7.83;77.30
11415;BME280;5763;42.714;23.244;2023-01-10T07:43:50;93612.69;;;7.86;77.34
11415;BME280;5763;42.714;23.244;2023-01-10T07:46:17;93605.72;;;7.85;77.05
11415;BME280;5763;42.714;23.244;2023-01-10T07:48:43;93616.78;;;7.73;77.75
11415;BME280;5763;42.714;23.244;2023-01-10T07:51:12;93605.78;;;7.58;77.90
11415;BME280;5763;42.714;23.244;2023-01-10T07:53:39;93612.78;;;7.50;78.53
11415;BME280;5763;42.714;23.244;2023-01-10T07:56:06;93608.41;;;7.44;78.61
11415;BME280;5763;42.714;23.244;2023-01-10T07:58:33;93603.72;;;7.26;79.05
11415;BME280;5763;42.714;23.244;2023-01-10T08:01:02;93605.25;;;7.09;79.78
11415;BME280;5763;42.714;23.244;2023-01-10T08:03:29;93606.44;;;7.26;79.58
11415;BME280;5763;42.714;23.244;2023-01-10T08:05:58;93599.34;;;7.29;79.33
11415;BME280;5763;42.714;23.244;2023-01-10T08:08:26;93599.78;;;7.27;79.77
11415;BME280;5763;42.714;23.244;2023-01-10T08:10:53;93596.47;;;7.32;79.67
11415;BME280;5763;42.714;23.244;2023-01-10T08:13:20;93596.47;;;7.23;79.38
11415;BME280;5763;42.714;23.244;2023-01-10T08:15:47;93600.41;;;7.13;80.24
11415;BME280;5763;42.714;23.244;2023-01-10T08:18:17;93600.09;;;7.02;80.92
11415;BME280;5763;42.714;23.244;2023-01-10T08:20:44;93598.28;;;7.08;81.14
11415;BME280;5763;42.714;23.244;2023-01-10T08:23:12;93599.50;;;7.16;80.76
11415;BME280;5763;42.714;23.244;2023-01-10T08:25:41;93590.13;;;7.26;80.14
11415;BME280;5763;42.714;23.244;2023-01-10T08:28:08;93588.00;;;7.21;80.57
11415;BME280;5763;42.714;23.244;2023-01-10T08:30:36;93570.34;;;7.17;80.87
11415;BME280;5763;42.714;23.244;2023-01-10T08:33:05;93577.13;;;7.21;81.20
11415;BME280;5763;42.714;23.244;2023-01-10T08:35:36;93566.22;;;7.39;80.79
11415;BME280;5763;42.714;23.244;2023-01-10T08:38:04;93566.97;;;7.49;80.32
11415;BME280;5763;42.714;23.244;2023-01-10T08:40:32;93577.53;;;7.56;80.77
11415;BME280;5763;42.714;23.244;2023-01-10T08:43:02;93565.59;;;7.53;80.89
11415;BME280;5763;42.714;23.244;2023-01-10T08:45:30;93565.84;;;7.64;80.42
11415;BME280;5763;42.714;23.244;2023-01-10T08:47:58;93562.22;;;7.67;80.16
11415;BME280;5763;42.714;23.244;2023-01-10T08:50:27;93561.81;;;7.51;80.65
11415;BME280;5763;42.714;23.244;2023-01-10T08:52:57;93556.53;;;7.47;80.57
11415;BME280;5763;42.714;23.244;2023-01-10T08:55:26;93552.03;;;7.35;80.73
11415;BME280;5763;42.714;23.244;2023-01-10T08:57:58;93558.69;;;7.16;81.72
11415;BME280;5763;42.714;23.244;2023-01-10T09:00:28;93556.88;;;7.13;82.78
11415;BME280;5763;42.714;23.244;2023-01-10T09:02:55;93563.25;;;7.19;83.00
11415;BME280;5763;42.714;23.244;2023-01-10T09:05:23;93557.47;;;7.17;82.65
11415;BME280;5763;42.714;23.244;2023-01-10T09:07:52;93545.09;;;7.16;82.94
11415;BME280;5763;42.714;23.244;2023-01-10T09:10:20;93547.38;;;7.09;83.55
11415;BME280;5763;42.714;23.244;2023-01-10T09:12:47;93533.31;;;6.92;84.23
11415;BME280;5763;42.714;23.244;2023-01-10T09:15:23;93531.81;;;6.91;85.60
11415;BME280;5763;42.714;23.244;2023-01-10T09:17:58;93543.00;;;6.93;85.35
11415;BME280;5763;42.714;23.244;2023-01-10T09:20:28;93545.09;;;6.98;85.62
11415;BME280;5763;42.714;23.244;2023-01-10T09:22:56;93545.56;;;6.97;86.28
11415;BME280;5763;42.714;23.244;2023-01-10T09:25:24;93538.94;;;6.98;86.52
11415;BME280;5763;42.714;23.244;2023-01-10T09:27:56;93546.31;;;7.06;85.76
11415;BME280;5763;42.714;23.244;2023-01-10T09:30:25;93536.66;;;7.05;86.00
11415;BME280;5763;42.714;23.244;2023-01-10T09:32:53;93529.56;;;6.99;85.47
11415;BME280;5763;42.714;23.244;2023-01-10T09:35:23;93538.16;;;7.06;86.07
11415;BME280;5763;42.714;23.244;2023-01-10T09:37:53;93525.31;;;7.07;86.01
11415;BME280;5763;42.714;23.244;2023-01-10T09:40:30;93520.94;;;7.09;86.21
11415;BME280;5763;42.714;23.244;2023-01-10T09:43:07;93515.94;;;7.08;86.90
11415;BME280;5763;42.714;23.244;2023-01-10T09:45:43;93511.56;;;7.10;86.76
11415;BME280;5763;42.714;23.244;2023-01-10T09:48:19;93495.53;;;7.12;87.06
11415;BME280;5763;42.714;23.244;2023-01-10T09:51:03;93498.53;;;7.23;86.24
11415;BME280;5763;42.714;23.244;2023-01-10T09:53:35;93498.06;;;7.25;86.60
11415;BME280;5763;42.714;23.244;2023-01-10T09:56:06;93504.91;;;7.20;86.51
11415;BME280;5763;42.714;23.244;2023-01-10T09:58:35;93503.09;;;7.17;86.58
11415;BME280;5763;42.714;23.244;2023-01-10T10:01:05;93484.66;;;7.12;86.57
11415;BME280;5763;42.714;23.244;2023-01-10T10:03:40;93482.25;;;7.14;87.14
11415;BME280;5763;42.714;23.244;2023-01-10T10:06:12;93483.16;;;7.11;88.02
11415;BME280;5763;42.714;23.244;2023-01-10T10:08:39;93479.72;;;7.02;87.97
11415;BME280;5763;42.714;23.244;2023-01-10T10:11:26;93480.16;;;7.00;89.10
11415;BME280;5763;42.714;23.244;2023-01-10T10:14:02;93483.47;;;7.04;89.17
11415;BME280;5763;42.714;23.244;2023-01-10T10:16:40;93482.44;;;7.02;88.62
11415;BME280;5763;42.714;23.244;2023-01-10T10:19:19;93484.22;;;7.05;89.18
11415;BME280;5763;42.714;23.244;2023-01-10T10:21:57;93471.94;;;7.18;88.04
11415;BME280;5763;42.714;23.244;2023-01-10T10:24:42;93483.44;;;7.13;87.79
11415;BME280;5763;42.714;23.244;2023-01-10T10:27:20;93472.13;;;7.06;87.79
11415;BME280;5763;42.714;23.244;2023-01-10T10:30:16;93476.94;;;7.11;88.34
11415;BME280;5763;42.714;23.244;2023-01-10T10:33:11;93466.97;;;7.17;88.15
11415;BME280;5763;42.714;23.244;2023-01-10T10:35:44;93464.09;;;7.20;88.62
11415;BME280;5763;42.714;23.244;2023-01-10T10:38:21;93460.16;;;7.21;88.00
11415;BME280;5763;42.714;23.244;2023-01-10T10:40:55;93443.56;;;7.10;89.49
11415;BME280;5763;42.714;23.244;2023-01-10T10:43:29;93458.66;;;7.20;89.36
11415;BME280;5763;42.714;23.244;2023-01-10T10:46:00;93449.28;;;7.12;88.89
11415;BME280;5763;42.714;23.244;2023-01-10T10:48:31;93448.22;;;7.19;88.89
11415;BME280;5763;42.714;23.244;2023-01-10T10:51:05;93445.00;;;7.29;88.71
11415;BME280;5763;42.714;23.244;2023-01-10T10:53:35;93441.88;;;7.22;88.87
11415;BME280;5763;42.714;23.244;2023-01-10T10:56:08;93438.50;;;7.36;88.24
11415;BME280;5763;42.714;23.244;2023-01-10T10:58:38;93432.41;;;7.50;87.55
11415;BME280;5763;42.714;23.244;2023-01-10T11:01:10;93450.59;;;7.35;87.79
11415;BME280;5763;42.714;23.244;2023-01-10T11:03:41;93451.03;;;7.33;88.50
11415;BME280;5763;42.714;23.244;2023-01-10T11:06:12;93451.63;;;7.37;88.54
11415;BME280;5763;42.714;23.244;2023-01-10T11:08:45;93457.09;;;7.28;88.28
11415;BME280;5763;42.714;23.244;2023-01-10T11:11:18;93455.75;;;7.33;88.43
11415;BME280;5763;42.714;23.244;2023-01-10T11:13:52;93437.31;;;7.28;88.90
11415;BME280;5763;42.714;23.244;2023-01-10T11:16:26;93431.25;;;7.33;89.13
11415;BME280;5763;42.714;23.244;2023-01-10T11:19:17;93428.69;;;7.29;89.58
11415;BME280;5763;42.714;23.244;2023-01-10T11:21:51;93423.91;;;7.24;90.30
11415;BME280;5763;42.714;23.244;2023-01-10T11:24:26;93419.78;;;7.29;90.00
11415;BME280;5763;42.714;23.244;2023-01-10T11:26:55;93425.81;;;7.33;90.42
11415;BME280;5763;42.714;23.244;2023-01-10T11:29:26;93426.88;;;7.35;90.31
11415;BME280;5763;42.714;23.244;2023-01-10T11:31:56;93426.88;;;7.35;90.49
11415;BME280;5763;42.714;23.244;2023-01-10T11:34:25;93411.69;;;7.43;90.72
11415;BME280;5763;42.714;23.244;2023-01-10T11:36:57;93417.03;;;7.38;90.24
11415;BME280;5763;42.714;23.244;2023-01-10T11:39:27;93414.47;;;7.34;90.43
11415;BME280;5763;42.714;23.244;2023-01-10T11:41:55;93418.28;;;7.28;91.22
11415;BME280;5763;42.714;23.244;2023-01-10T11:44:25;93416.44;;;7.34;90.53
11415;BME280;5763;42.714;23.244;2023-01-10T11:46:54;93413.72;;;7.34;91.39
11415;BME280;5763;42.714;23.244;2023-01-10T11:49:27;93417.59;;;7.42;91.16
11415;BME280;5763;42.714;23.244;2023-01-10T11:51:58;93417.78;;;7.38;90.86
11415;BME280;5763;42.714;23.244;2023-01-10T11:54:28;93419.00;;;7.37;91.01
11415;BME280;5763;42.714;23.244;2023-01-10T11:56:58;93422.47;;;7.38;91.13
11415;BME280;5763;42.714;23.244;2023-01-10T11:59:26;93417.78;;;7.38;91.40
11415;BME280;5763;42.714;23.244;2023-01-10T12:01:56;93408.56;;;7.36;91.55
11415;BME280;5763;42.714;23.244;2023-01-10T12:04:27;93399.34;;;7.33;91.97
11415;BME280;5763;42.714;23.244;2023-01-10T12:06:58;93404.06;;;7.33;92.47
11415;BME280;5763;42.714;23.244;2023-01-10T12:09:39;93399.50;;;7.39;92.00
11415;BME280;5763;42.714;23.244;2023-01-10T12:12:17;93410.41;;;7.30;92.32
11415;BME280;5763;42.714;23.244;2023-01-10T12:14:45;93406.81;;;7.24;93.27
11415;BME280;5763;42.714;23.244;2023-01-10T12:17:20;93398.19;;;7.25;93.20
11415;BME280;5763;42.714;23.244;2023-01-10T12:19:50;93399.25;;;7.28;93.81
11415;BME280;5763;42.714;23.244;2023-01-10T12:22:24;93409.28;;;7.45;92.90
11415;BME280;5763;42.714;23.244;2023-01-10T12:24:55;93405.03;;;7.44;92.97
11415;BME280;5763;42.714;23.244;2023-01-10T12:27:27;93406.09;;;7.47;93.94
11415;BME280;5763;42.714;23.244;2023-01-10T12:30:03;93409.41;;;7.51;93.30
11415;BME280;5763;42.714;23.244;2023-01-10T12:32:37;93411.31;;;7.59;92.82
11415;BME280;5763;42.714;23.244;2023-01-10T12:35:13;93420.06;;;7.63;92.85
11415;BME280;5763;42.714;23.244;2023-01-10T12:37:46;93422.69;;;7.58;92.96
11415;BME280;5763;42.714;23.244;2023-01-10T12:40:22;93413.50;;;7.46;93.95
11415;BME280;5763;42.714;23.244;2023-01-10T12:42:58;93400.03;;;7.52;94.46
11415;BME280;5763;42.714;23.244;2023-01-10T12:45:49;93392.66;;;7.43;94.45
11415;BME280;5763;42.714;23.244;2023-01-10T12:48:23;93381.78;;;7.43;94.83
11415;BME280;5763;42.714;23.244;2023-01-10T12:50:56;93375.69;;;7.48;94.88
11415;BME280;5763;42.714;23.244;2023-01-10T12:53:32;93381.31;;;7.45;95.58
11415;BME280;5763;42.714;23.244;2023-01-10T12:56:04;93401.97;;;7.60;94.80
11415;BME280;5763;42.714;23.244;2023-01-10T12:58:40;93410.69;;;7.64;94.65
11415;BME280;5763;42.714;23.244;2023-01-10T13:01:11;93407.34;;;7.69;94.38
11415;BME280;5763;42.714;23.244;2023-01-10T13:03:41;93399.75;;;7.73;93.89
11415;BME280;5763;42.714;23.244;2023-01-10T13:06:19;93413.09;;;7.71;93.26
11415;BME280;5763;42.714;23.244;2023-01-10T13:08:48;93413.53;;;7.70;92.72
11415;BME280;5763;42.714;23.244;2023-01-10T13:11:21;93416.63;;;7.63;93.19
11415;BME280;5763;42.714;23.244;2023-01-10T13:13:55;93409.53;;;7.56;93.90
11415;BME280;5763;42.714;23.244;2023-01-10T13:16:32;93424.78;;;7.63;93.22
11415;BME280;5763;42.714;23.244;2023-01-10T13:19:22;93409.38;;;7.60;93.37
11415;BME280;5763;42.714;23.244;2023-01-10T13:22:20;93410.13;;;7.60;93.96
11415;BME280;5763;42.714;23.244;2023-01-10T13:24:56;93416.47;;;7.57;94.22
11415;BME280;5763;42.714;23.244;2023-01-10T13:27:29;93431.91;;;7.60;94.85
11415;BME280;5763;42.714;23.244;2023-01-10T13:29:58;93429.19;;;7.60;93.95
11415;BME280;5763;42.714;23.244;2023-01-10T13:32:28;93427.78;;;7.65;94.25
11415;BME280;5763;42.714;23.244;2023-01-10T13:35:10;93425.84;;;7.65;94.43